createdAt,value
2022-10-06T00:04:09.974Z,3.42
2022-10-06T00:09:14.462Z,2.28
2022-10-06T00:14:17.471Z,8.38
2022-10-06T00:19:20.632Z,2.90
2022-10-06T00:24:25.129Z,4.38
2022-10-06T00:29:28.355Z,3.47
2022-10-06T00:34:31.379Z,2.63
2022-10-06T00:39:35.807Z,3.28
2022-10-06T00:44:38.881Z,3.05
2022-10-06T00:49:43.715Z,2.42
2022-10-06T00:54:48.349Z,1.92
2022-10-06T00:59:51.387Z,2.35
2022-10-06T01:04:57.059Z,3.17
2022-10-06T01:10:01.484Z,2.33
2022-10-06T01:15:05.380Z,2.90
2022-10-06T01:20:12.688Z,2.08
2022-10-06T01:25:19.653Z,2.33
2022-10-06T01:30:26.840Z,1.80
2022-10-06T01:35:29.856Z,1.98
2022-10-06T01:40:34.289Z,2.03
2022-10-06T01:45:37.381Z,1.70
2022-10-06T01:50:41.859Z,2.05
2022-10-06T01:55:46.444Z,2.28
2022-10-06T02:00:50.854Z,2.25
2022-10-06T02:05:57.261Z,1.98
2022-10-06T02:11:06.591Z,1.92
2022-10-06T02:16:11.909Z,2.55
2022-10-06T02:21:16.631Z,1.98
2022-10-06T02:26:21.075Z,2.00
2022-10-06T02:31:24.446Z,2.35
2022-10-06T02:36:27.527Z,2.00
2022-10-06T02:41:32.719Z,2.25
2022-10-06T02:46:35.935Z,1.63
2022-10-06T02:51:39.028Z,2.17
2022-10-06T02:56:43.462Z,2.70
2022-10-06T03:01:46.648Z,2.00
2022-10-06T03:06:50.716Z,2.17
2022-10-06T03:11:55.175Z,1.70
2022-10-06T03:16:58.273Z,2.33
2022-10-06T03:22:01.375Z,1.38
2022-10-06T03:27:05.813Z,3.17
2022-10-06T03:32:08.894Z,2.88
2022-10-06T03:37:11.889Z,1.60
2022-10-06T03:42:16.348Z,3.03
2022-10-06T03:47:19.821Z,2.65
2022-10-06T03:52:26.038Z,1.73
2022-10-06T03:57:30.653Z,1.35
2022-10-06T04:02:33.684Z,2.72
2022-10-06T04:07:36.698Z,2.45
2022-10-06T04:12:41.143Z,1.38
2022-10-06T04:17:44.174Z,1.40
2022-10-06T04:22:47.213Z,1.77
2022-10-06T04:27:51.656Z,2.25
2022-10-06T04:32:55.309Z,1.67
2022-10-06T04:37:58.474Z,1.60
2022-10-06T04:43:03.854Z,2.03
2022-10-06T04:48:08.997Z,1.48
2022-10-06T04:53:13.178Z,2.58
2022-10-06T04:58:17.601Z,1.75
2022-10-06T05:03:20.728Z,2.25
2022-10-06T05:08:23.757Z,1.65
2022-10-06T05:13:29.626Z,1.27
2022-10-06T05:18:33.248Z,1.92
2022-10-06T05:23:38.855Z,1.33
2022-10-06T05:28:43.831Z,1.63
2022-10-06T05:33:47.182Z,1.30
2022-10-06T05:38:50.385Z,1.65
2022-10-06T05:43:54.780Z,1.40
2022-10-06T05:48:59.433Z,1.63
2022-10-06T05:54:03.089Z,1.88
2022-10-06T05:59:07.720Z,1.38
2022-10-06T06:04:12.939Z,2.50
2022-10-06T06:09:17.759Z,1.42
2022-10-06T06:14:43.843Z,2.05
2022-10-06T06:19:47.083Z,1.55
2022-10-06T06:24:50.169Z,1.40
2022-10-06T06:29:54.741Z,1.55
2022-10-06T06:34:59.045Z,2.28
2022-10-06T06:40:02.090Z,5.65
2022-10-06T06:45:09.716Z,4.05
2022-10-06T06:50:14.066Z,4.82
2022-10-06T06:55:17.272Z,2.83
2022-10-06T07:00:23.424Z,2.70
2022-10-06T07:05:26.417Z,3.67
2022-10-06T07:10:31.549Z,3.72
2022-10-06T07:15:55.500Z,4.80
2022-10-06T07:21:21.397Z,3.65
2022-10-06T07:26:24.487Z,4.28
2022-10-06T07:31:33.454Z,6.85
2022-10-06T07:36:36.648Z,7.25
2022-10-06T07:41:39.721Z,6.53
2022-10-06T07:46:44.816Z,7.43
2022-10-06T07:51:47.824Z,7.38
2022-10-06T07:56:50.856Z,7.60
2022-10-06T08:01:55.314Z,5.75
2022-10-06T08:06:58.490Z,6.45
2022-10-06T08:12:21.484Z,4.82
2022-10-06T08:17:25.940Z,5.93
2022-10-06T08:22:30.149Z,5.70
2022-10-06T08:27:34.839Z,4.75
2022-10-06T08:32:42.721Z,5.20
2022-10-06T08:37:45.982Z,3.88
2022-10-06T08:42:52.746Z,4.30
2022-10-06T08:48:02.638Z,4.72
2022-10-06T08:53:15.496Z,3.95
2022-10-06T08:58:34.322Z,9.60
2022-10-06T09:03:39.524Z,2.83
2022-10-06T09:08:50.882Z,3.38
2022-10-06T09:13:59.812Z,2.30
2022-10-06T09:19:12.577Z,2.78
2022-10-06T09:24:18.658Z,3.38
2022-10-06T09:29:21.784Z,2.65
2022-10-06T09:34:31.643Z,3.28
2022-10-06T09:39:37.291Z,4.97
2022-10-06T09:44:52.871Z,3.53
2022-10-06T09:50:23.071Z,2.45
2022-10-06T09:55:28.616Z,4.50
2022-10-06T10:00:34.837Z,3.85
2022-10-06T10:05:46.883Z,3.13
2022-10-06T10:10:50.929Z,3.13
2022-10-06T10:15:56.765Z,2.65
2022-10-06T10:21:05.175Z,2.25
2022-10-06T10:26:16.429Z,2.30
2022-10-06T10:31:26.683Z,1.60
2022-10-06T10:36:37.492Z,3.10
2022-10-06T10:41:47.440Z,2.35
2022-10-06T10:46:53.430Z,3.95
2022-10-06T10:52:04.075Z,2.42
2022-10-06T10:57:14.978Z,3.25
2022-10-06T11:02:21.657Z,2.17
2022-10-06T11:07:32.263Z,2.47
2022-10-06T11:12:55.909Z,3.03
2022-10-06T11:18:08.342Z,2.20
2022-10-06T11:23:36.987Z,2.78
2022-10-06T11:28:45.822Z,2.15
2022-10-06T11:33:52.744Z,2.05
2022-10-06T11:39:03.968Z,3.35
2022-10-06T11:44:14.741Z,2.15
2022-10-06T11:49:36.991Z,3.63
2022-10-06T11:54:51.120Z,1.95
2022-10-06T11:59:55.571Z,3.28
2022-10-06T12:10:57.687Z,2.40
2022-10-06T12:21:55.884Z,2.38
2022-10-06T12:27:25.025Z,2.30
2022-10-06T12:32:49.576Z,2.50
2022-10-06T12:37:54.784Z,1.60
2022-10-06T12:43:26.687Z,2.53
2022-10-06T12:48:38.505Z,2.83
2022-10-06T12:53:52.392Z,2.00
2022-10-06T12:58:57.082Z,2.28
2022-10-06T13:04:00.179Z,2.22
2022-10-06T13:09:06.579Z,1.95
2022-10-06T13:14:14.601Z,2.55
2022-10-06T13:19:20.247Z,1.70
2022-10-06T13:24:28.308Z,3.65
2022-10-06T13:29:32.868Z,1.63
2022-10-06T13:34:43.066Z,2.55
2022-10-06T13:39:46.674Z,2.20
2022-10-06T13:44:58.625Z,2.35
2022-10-06T13:50:04.781Z,1.70
2022-10-06T13:55:16.600Z,2.35
2022-10-06T14:00:23.706Z,3.03
2022-10-06T14:05:31.094Z,1.88
2022-10-06T14:10:46.004Z,2.00
2022-10-06T14:15:53.041Z,2.13
2022-10-06T14:20:57.627Z,3.10
2022-10-06T14:26:00.948Z,2.53
2022-10-06T14:31:06.652Z,2.80
2022-10-06T14:36:19.668Z,2.15
2022-10-06T14:41:27.576Z,1.92
2022-10-06T14:46:32.234Z,1.92
2022-10-06T14:51:37.103Z,1.60
2022-10-06T14:56:41.590Z,2.38
2022-10-06T15:01:46.788Z,2.10
2022-10-06T15:07:07.502Z,2.15
2022-10-06T15:12:10.555Z,2.75
2022-10-06T15:17:14.984Z,3.17
2022-10-06T15:22:18.302Z,2.50
2022-10-06T15:27:38.988Z,2.30
2022-10-06T15:32:43.455Z,2.03
2022-10-06T15:37:46.473Z,2.72
2022-10-06T15:42:50.123Z,1.90
2022-10-06T15:47:54.522Z,2.70
2022-10-06T15:52:57.561Z,3.75
2022-10-06T15:58:00.592Z,2.30
2022-10-06T16:03:22.536Z,1.60
2022-10-06T16:08:25.545Z,2.47
2022-10-06T16:13:28.603Z,1.80
2022-10-06T16:18:34.241Z,1.90
2022-10-06T16:23:37.271Z,1.83
2022-10-06T16:28:40.441Z,2.05
2022-10-06T16:33:45.647Z,1.90
2022-10-06T16:38:51.964Z,2.00
2022-10-06T16:43:55.356Z,2.35
2022-10-06T16:49:01.366Z,5.93
2022-10-06T16:54:06.364Z,5.57
2022-10-06T16:59:14.308Z,4.07
2022-10-06T17:04:20.094Z,7.72
2022-10-06T17:09:24.836Z,18.38
2022-10-06T17:14:28.818Z,9.18
2022-10-06T17:19:33.232Z,14.80
2022-10-06T17:24:36.266Z,7.88
2022-10-06T17:29:39.368Z,7.32
2022-10-06T17:34:43.784Z,7.60
2022-10-06T17:39:47.360Z,11.32
2022-10-06T17:44:50.524Z,6.93
2022-10-06T17:49:56.736Z,6.63
2022-10-06T17:54:59.842Z,5.57
2022-10-06T18:00:04.980Z,5.03
2022-10-06T18:05:09.910Z,5.40
2022-10-06T18:10:30.194Z,5.50
2022-10-06T18:15:37.232Z,6.32
2022-10-06T18:20:41.857Z,4.55
2022-10-06T18:25:45.228Z,2.40
2022-10-06T18:30:51.384Z,4.25
2022-10-06T18:36:14.637Z,3.38
2022-10-06T18:41:20.501Z,1.85
2022-10-06T18:46:41.454Z,3.40
2022-10-06T18:51:48.685Z,3.65
2022-10-06T18:56:52.202Z,4.38
2022-10-06T19:01:57.885Z,5.65
2022-10-06T19:07:03.167Z,4.18
2022-10-06T19:12:06.366Z,4.70
2022-10-06T19:17:14.002Z,4.43
2022-10-06T19:22:19.978Z,5.50
2022-10-06T19:27:25.573Z,4.72
2022-10-06T19:32:32.801Z,3.67
2022-10-06T19:37:37.323Z,2.72
2022-10-06T19:42:50.822Z,4.43
2022-10-06T19:47:54.731Z,2.75
2022-10-06T19:52:59.280Z,3.72
2022-10-06T19:58:02.409Z,2.88
2022-10-06T20:03:07.565Z,2.97
2022-10-06T20:08:12.046Z,3.60
2022-10-06T20:13:15.141Z,2.88
2022-10-06T20:18:18.224Z,2.40
2022-10-06T20:23:22.663Z,2.55
2022-10-06T20:28:25.793Z,7.72
2022-10-06T20:33:29.386Z,3.47
2022-10-06T20:38:51.608Z,4.05
2022-10-06T20:43:57.115Z,4.28
2022-10-06T20:49:02.775Z,4.78
2022-10-06T20:54:08.352Z,3.95
2022-10-06T20:59:13.204Z,3.47
2022-10-06T21:04:16.647Z,4.22
2022-10-06T21:09:21.619Z,2.08
2022-10-06T21:14:25.064Z,1.98
2022-10-06T21:19:29.923Z,2.78
2022-10-06T21:24:34.433Z,4.45
2022-10-06T21:29:37.458Z,3.38
2022-10-06T21:34:40.623Z,4.25
2022-10-06T21:39:45.107Z,2.97
2022-10-06T21:44:48.217Z,7.13
2022-10-06T21:49:51.235Z,2.38
2022-10-06T21:54:55.886Z,3.20
2022-10-06T21:59:58.933Z,3.03
2022-10-06T22:05:01.993Z,3.92
2022-10-06T22:10:07.504Z,2.90
2022-10-06T22:15:11.346Z,2.63
2022-10-06T22:20:14.435Z,2.13
2022-10-06T22:25:18.883Z,2.83
2022-10-06T22:30:22.045Z,1.70
2022-10-06T22:35:25.086Z,3.35
2022-10-06T22:40:29.535Z,3.20
2022-10-06T22:45:32.576Z,1.75
2022-10-06T22:50:35.670Z,2.65
2022-10-06T22:55:40.162Z,4.05
2022-10-06T23:00:44.248Z,3.15
2022-10-06T23:05:55.708Z,1.73
2022-10-06T23:11:06.874Z,2.40
2022-10-06T23:16:12.127Z,2.47
2022-10-06T23:21:21.413Z,1.92
2022-10-06T23:26:26.661Z,3.28
2022-10-06T23:31:30.295Z,2.35
2022-10-06T23:36:33.521Z,4.63
2022-10-06T23:41:37.955Z,1.80
2022-10-06T23:46:40.992Z,2.17
2022-10-06T23:51:44.037Z,3.03
2022-10-06T23:56:49.454Z,1.98
